Time;durP1;ratioP1;P1;durP2;ratioP2;P2;SDS_P1;SDS_P2;PMS_P1;PMS_P2;Temp;Humidity;BMP_temperature;BMP_pressure;BME280_temperature;BME280_humidity;BME280_pressure;Samples;Min_cycle;Max_cycle;Signal;HPM_P1;HPM_P2
2023/06/02 00:56:03;;;;;;;3.10;2.20;;;;;;;16.81;85.19;100389.48;106467;1259;72649;-91
2023/06/02 00:58:51;;;;;;;3.40;1.90;;;;;;;16.75;84.82;100388.77;106334;1254;61353;-92
2023/06/02 01:01:40;;;;;;;6.20;2.90;;;;;;;16.73;84.34;100386.86;106418;1256;61247;-92
2023/06/02 01:04:30;;;;;;;6.20;3.50;;;;;;;16.69;83.79;100387.33;106162;1259;74943;-92
2023/06/02 01:07:23;;;;;;;5.50;2.80;;;;;;;16.71;84.47;100385.20;106048;1259;69124;-92
2023/06/02 01:10:13;;;;;;;3.30;2.30;;;;;;;16.68;84.73;100382.07;106338;1261;72978;-91
2023/06/02 01:13:01;;;;;;;3.90;1.90;;;;;;;16.64;87.30;100387.38;106447;1258;61250;-93
2023/06/02 01:15:51;;;;;;;4.60;2.40;;;;;;;16.56;89.48;100382.49;106446;1255;61305;-92
2023/06/02 01:18:42;;;;;;;8.90;2.30;;;;;;;16.48;90.93;100379.78;106426;1258;74722;-92
2023/06/02 01:21:34;;;;;;;3.00;2.20;;;;;;;16.43;93.35;100380.67;106166;1254;69786;-93
2023/06/02 01:24:22;;;;;;;5.90;2.10;;;;;;;16.38;94.80;100379.59;106467;1259;72655;-94
2023/06/02 01:27:15;;;;;;;3.70;2.00;;;;;;;16.43;94.97;100378.11;106335;1255;61384;-91
2023/06/02 01:30:04;;;;;;;4.30;2.50;;;;;;;16.35;96.36;100379.61;106123;1260;61694;-93
2023/06/02 01:32:56;;;;;;;11.00;2.30;;;;;;;16.31;97.05;100379.65;106219;1254;74655;-93
2023/06/02 01:35:46;;;;;;;3.60;2.50;;;;;;;16.24;98.06;100378.83;106512;1254;67975;-93
2023/06/02 01:38:35;;;;;;;5.80;2.00;;;;;;;16.20;98.09;100377.39;106400;1254;71804;-91
2023/06/02 01:41:27;;;;;;;5.60;2.20;;;;;;;16.16;98.65;100379.83;106354;1253;61224;-92
2023/06/02 01:44:15;;;;;;;5.80;2.00;;;;;;;15.90;99.41;100383.49;106478;1261;61337;-93
2023/06/02 01:47:04;;;;;;;6.70;2.50;;;;;;;15.37;100.00;100392.11;106143;1254;74724;-92
2023/06/02 01:49:52;;;;;;;6.70;2.20;;;;;;;15.28;100.00;100397.65;106250;1257;67327;-91
2023/06/02 01:52:40;;;;;;;6.50;2.60;;;;;;;15.23;100.00;100394.80;106181;1255;72743;-92
2023/06/02 01:55:28;;;;;;;5.40;2.60;;;;;;;15.45;100.00;100393.56;106492;1259;61282;-92
2023/06/02 01:58:18;;;;;;;6.50;2.80;;;;;;;15.58;100.00;100392.58;106633;1256;61166;-92
2023/06/02 02:01:06;;;;;;;4.80;2.60;;;;;;;15.53;100.00;100393.20;106152;1258;73409;-92
2023/06/02 02:03:54;;;;;;;5.10;2.40;;;;;;;15.50;100.00;100391.55;106425;1254;68370;-91
2023/06/02 02:06:49;;;;;;;6.50;2.90;;;;;;;15.49;100.00;100390.76;106576;1254;72661;-93
2023/06/02 02:09:38;;;;;;;7.90;2.40;;;;;;;15.46;100.00;100388.77;106374;1259;61174;-92
2023/06/02 02:12:26;;;;;;;5.70;2.20;;;;;;;15.37;100.00;100387.32;106390;1260;61138;-92
2023/06/02 02:15:15;;;;;;;5.40;2.00;;;;;;;15.36;100.00;100390.73;106492;1255;74476;-91
2023/06/02 02:18:04;;;;;;;5.30;2.50;;;;;;;15.46;100.00;100386.92;106486;1254;67464;-92
2023/06/02 02:20:53;;;;;;;3.80;2.20;;;;;;;15.55;100.00;100386.43;106231;1254;72698;-92
2023/06/02 02:23:41;;;;;;;9.20;2.40;;;;;;;15.65;100.00;100380.54;106298;1260;61192;-91
2023/06/02 02:26:30;;;;;;;3.60;2.50;;;;;;;15.70;100.00;100380.06;106622;1257;60365;-93
2023/06/02 02:29:18;;;;;;;8.60;2.90;;;;;;;15.80;100.00;100384.77;106333;1256;74940;-90
2023/06/02 02:32:07;;;;;;;5.30;2.20;;;;;;;15.81;100.00;100386.95;106541;1258;66217;-92
2023/06/02 02:34:56;;;;;;;6.50;2.40;;;;;;;15.90;100.00;100386.54;106395;1255;71163;-92
2023/06/02 02:37:46;;;;;;;6.20;2.70;;;;;;;15.99;100.00;100388.88;106266;1260;61260;-92
2023/06/02 02:40:41;;;;;;;5.90;2.50;;;;;;;16.10;100.00;100386.16;106747;1260;61455;-91
2023/06/02 02:43:29;;;;;;;4.50;2.50;;;;;;;16.24;100.00;100384.51;106395;1254;73418;-92
2023/06/02 02:46:18;;;;;;;4.20;2.00;;;;;;;16.37;100.00;100381.82;106746;1254;67380;-92
2023/06/02 02:49:08;;;;;;;4.00;2.40;;;;;;;16.49;100.00;100381.63;106208;1260;73036;-93
2023/06/02 02:51:56;;;;;;;5.30;2.30;;;;;;;16.65;100.00;100379.48;106183;1254;61346;-92
2023/06/02 02:54:45;;;;;;;5.90;2.30;;;;;;;16.84;100.00;100379.99;106015;1257;61325;-93
2023/06/02 02:57:37;;;;;;;4.80;2.40;;;;;;;17.03;100.00;100384.23;106523;1254;74263;-92
2023/06/02 03:00:25;;;;;;;6.00;2.90;;;;;;;17.20;100.00;100380.59;106228;1259;68686;-94
2023/06/02 03:03:17;;;;;;;4.10;2.30;;;;;;;17.39;100.00;100382.56;106340;1255;72530;-92
2023/06/02 03:06:06;;;;;;;6.50;2.40;;;;;;;17.58;100.00;100378.66;106404;1264;61250;-91
2023/06/02 03:08:54;;;;;;;3.80;2.50;;;;;;;17.81;100.00;100371.70;106094;1259;61195;-91
2023/06/02 03:11:45;;;;;;;7.10;2.70;;;;;;;18.02;100.00;100374.89;106433;1258;74659;-91
2023/06/02 03:14:33;;;;;;;5.10;2.60;;;;;;;18.26;100.00;100374.02;106328;1259;68368;-93
2023/06/02 03:17:23;;;;;;;6.10;2.90;;;;;;;18.47;100.00;100374.73;106354;1254;71528;-93
2023/06/02 03:20:11;;;;;;;6.40;2.70;;;;;;;18.67;100.00;100373.22;106239;1255;61288;-91
2023/06/02 03:23:02;;;;;;;7.70;2.80;;;;;;;18.83;100.00;100368.79;106484;1259;61419;-91
2023/06/02 03:25:51;;;;;;;10.40;3.40;;;;;;;19.06;100.00;100369.64;106324;1260;75185;-92
2023/06/02 03:28:41;;;;;;;15.30;4.30;;;;;;;19.27;100.00;100371.05;106247;1254;68738;-91
2023/06/02 03:31:29;;;;;;;9.70;3.30;;;;;;;19.48;98.46;100370.31;106344;1260;73236;-91
2023/06/02 03:34:17;;;;;;;14.00;4.10;;;;;;;19.68;98.25;100368.74;106361;1260;61244;-91
2023/06/02 03:37:06;;;;;;;11.20;3.70;;;;;;;19.86;98.17;100370.70;106399;1259;61318;-92
2023/06/02 03:39:55;;;;;;;10.00;3.40;;;;;;;20.05;95.03;100364.92;106136;1260;74415;-91
2023/06/02 03:42:43;;;;;;;12.30;3.30;;;;;;;20.23;92.61;100369.09;106364;1258;67233;-91
2023/06/02 03:45:31;;;;;;;7.50;2.80;;;;;;;20.43;89.65;100366.40;106470;1258;71510;-89
2023/06/02 03:48:20;;;;;;;5.60;2.90;;;;;;;20.71;88.47;100361.91;106568;1260;61336;-90
2023/06/02 03:51:08;;;;;;;5.20;2.30;;;;;;;21.05;84.96;100360.98;106464;1260;61129;-90
2023/06/02 03:53:59;;;;;;;8.10;3.10;;;;;;;21.29;80.94;100354.39;106517;1253;74394;-90
2023/06/02 03:56:48;;;;;;;7.00;2.50;;;;;;;21.41;77.13;100347.83;106347;1260;68721;-90
2023/06/02 03:59:37;;;;;;;5.60;2.50;;;;;;;21.50;76.88;100343.02;106503;1258;72650;-90
2023/06/02 04:02:25;;;;;;;7.20;2.50;;;;;;;21.63;73.27;100345.58;106255;1256;60347;-92
2023/06/02 04:05:14;;;;;;;7.00;3.00;;;;;;;22.31;65.25;100341.48;106416;1260;61240;-92
2023/06/02 04:08:03;;;;;;;7.10;3.00;;;;;;;22.63;60.11;100339.46;106361;1255;74624;-90
2023/06/02 04:10:51;;;;;;;5.50;2.20;;;;;;;22.96;57.43;100337.68;106504;1257;69056;-92
2023/06/02 04:13:39;;;;;;;7.80;2.40;;;;;;;23.27;54.28;100338.09;106570;1263;72661;-92
2023/06/02 04:16:28;;;;;;;5.40;2.60;;;;;;;23.52;51.93;100339.94;106339;1254;61320;-91
2023/06/02 04:19:16;;;;;;;5.70;2.70;;;;;;;23.77;49.86;100334.58;106784;1254;61176;-92
2023/06/02 04:22:05;;;;;;;8.20;2.90;;;;;;;24.04;48.13;100338.80;106601;1254;73492;-91
2023/06/02 04:24:54;;;;;;;8.40;2.30;;;;;;;24.22;47.00;100339.55;106452;1261;67357;-92
2023/06/02 04:27:43;;;;;;;5.20;2.00;;;;;;;24.47;45.95;100338.36;106868;1254;72709;-93
2023/06/02 04:30:32;;;;;;;3.90;2.30;;;;;;;24.69;45.24;100341.33;106203;1260;61317;-91
2023/06/02 04:33:23;;;;;;;5.30;2.40;;;;;;;24.98;44.57;100338.11;106342;1254;61254;-92
2023/06/02 04:36:11;;;;;;;4.40;2.50;;;;;;;25.22;43.87;100337.48;106519;1255;73309;-92
2023/06/02 04:39:01;;;;;;;6.60;3.40;;;;;;;25.48;43.70;100335.28;106303;1258;67559;-91
2023/06/02 04:41:50;;;;;;;7.10;3.00;;;;;;;25.75;42.64;100332.20;106402;1254;73313;-93
2023/06/02 04:44:40;;;;;;;7.90;2.70;;;;;;;25.98;41.84;100331.70;106479;1257;61248;-93
2023/06/02 04:47:29;;;;;;;5.10;2.80;;;;;;;26.19;41.28;100333.14;106172;1257;61324;-91
2023/06/02 04:50:18;;;;;;;6.70;2.50;;;;;;;26.35;40.54;100331.75;106483;1257;65944;-92
2023/06/02 04:53:06;;;;;;;4.20;2.10;;;;;;;26.47;39.67;100328.38;106287;1254;61324;-93
2023/06/02 04:55:56;;;;;;;7.60;2.70;;;;;;;26.70;39.22;100329.09;106558;1254;64057;-92
2023/06/02 04:58:44;;;;;;;7.10;2.80;;;;;;;26.94;39.29;100328.89;106508;1254;61332;-94
2023/06/02 05:01:33;;;;;;;5.30;2.60;;;;;;;27.13;38.59;100328.81;106361;1254;61349;-92
2023/06/02 05:04:22;;;;;;;9.50;2.40;;;;;;;27.24;38.16;100326.38;106280;1260;64874;-94
2023/06/02 05:07:12;;;;;;;5.40;2.60;;;;;;;27.36;37.88;100329.30;106491;1255;61775;-93
2023/06/02 05:10:01;;;;;;;6.40;2.50;;;;;;;27.54;37.18;100329.02;106309;1254;71381;-92
2023/06/02 05:12:52;;;;;;;5.40;2.50;;;;;;;27.75;36.99;100328.73;106759;1254;61371;-90
2023/06/02 05:15:41;;;;;;;6.40;2.20;;;;;;;27.93;36.63;100329.64;106377;1254;61129;-90
2023/06/02 05:18:29;;;;;;;6.30;2.60;;;;;;;28.12;36.19;100328.85;106348;1254;64723;-92
2023/06/02 05:21:19;;;;;;;5.50;2.60;;;;;;;28.32;35.52;100327.93;106417;1254;61320;-91
2023/06/02 05:24:07;;;;;;;5.20;2.30;;;;;;;28.50;34.50;100331.77;106505;1254;64135;-90
2023/06/02 05:27:08;;;;;;;4.00;2.20;;;;;;;28.67;34.20;100332.39;106657;1254;61261;-89
2023/06/02 05:29:57;;;;;;;4.70;2.20;;;;;;;28.88;34.75;100329.42;106274;1255;61379;-92
2023/06/02 05:32:45;;;;;;;4.70;2.50;;;;;;;29.05;34.10;100328.58;106517;1254;65802;-93
2023/06/02 05:35:36;;;;;;;11.20;2.60;;;;;;;29.08;33.76;100331.14;106538;1254;61356;-92
2023/06/02 05:38:29;;;;;;;5.70;2.60;;;;;;;29.26;33.34;100326.88;106345;1258;64116;-91
2023/06/02 05:41:17;;;;;;;5.70;2.60;;;;;;;29.43;33.04;100323.71;106244;1254;61422;-92
2023/06/02 05:44:06;;;;;;;4.70;2.20;;;;;;;29.59;32.89;100321.05;106273;1260;61342;-90
2023/06/02 05:46:54;;;;;;;6.20;2.40;;;;;;;29.70;32.34;100322.59;106340;1254;65920;-90
2023/06/02 05:49:43;;;;;;;9.60;2.50;;;;;;;29.85;32.22;100325.70;106455;1257;61254;-92
2023/06/02 05:52:32;;;;;;;6.20;2.40;;;;;;;29.98;31.95;100325.75;106176;1254;65084;-90
2023/06/02 05:55:20;;;;;;;5.40;2.90;;;;;;;30.12;31.65;100323.70;106373;1254;61273;-92
2023/06/02 05:58:09;;;;;;;4.60;2.40;;;;;;;30.27;31.16;100321.34;106241;1257;61257;-91
2023/06/02 06:00:57;;;;;;;6.20;2.40;;;;;;;30.26;31.55;100317.97;106405;1254;64772;-91
2023/06/02 06:03:46;;;;;;;5.20;2.70;;;;;;;30.41;31.56;100313.93;106472;1254;61243;-92
2023/06/02 06:06:36;;;;;;;6.10;2.60;;;;;;;30.67;30.78;100311.64;106284;1254;64176;-92
2023/06/02 06:09:26;;;;;;;;;;;;;;;30.83;30.25;100312.84;106136;1257;61319;-93
2023/06/02 06:12:15;;;;;;;9.10;2.80;;;;;;;30.92;29.90;100315.50;106182;1254;61183;-93
2023/06/02 06:15:05;;;;;;;7.40;2.50;;;;;;;31.03;29.74;100312.37;106437;1255;73448;-91
2023/06/02 06:17:59;;;;;;;8.10;3.00;;;;;;;31.11;29.10;100313.95;106707;1254;61276;-90
2023/06/02 06:21:00;;;;;;;7.20;3.30;;;;;;;31.25;29.71;100314.58;106986;1260;62715;-93
2023/06/02 06:24:04;;;;;;;8.70;2.60;;;;;;;31.50;29.32;100313.51;106394;1254;61217;-90
2023/06/02 06:26:58;;;;;;;7.30;2.50;;;;;;;31.79;28.48;100312.33;106498;1254;61227;-92
2023/06/02 06:29:50;;;;;;;5.30;2.20;;;;;;;31.89;27.87;100312.48;106432;1254;64886;-93
2023/06/02 06:32:43;;;;;;;6.90;2.50;;;;;;;32.04;27.92;100310.15;106393;1254;61368;-90
2023/06/02 06:35:34;;;;;;;4.70;2.20;;;;;;;32.31;28.08;100308.86;106272;1254;62852;-92
2023/06/02 06:38:31;;;;;;;8.40;2.50;;;;;;;32.46;27.46;100308.02;106366;1257;61362;-90
2023/06/02 06:41:31;;;;;;;7.90;2.80;;;;;;;32.54;26.96;100309.73;106155;1259;61160;-91
2023/06/02 06:44:22;;;;;;;7.20;2.20;;;;;;;32.69;26.96;100310.77;106590;1257;66015;-91
2023/06/02 06:47:12;;;;;;;5.10;2.20;;;;;;;32.75;26.94;100314.10;106622;1254;61018;-94
2023/06/02 06:50:05;;;;;;;8.20;2.60;;;;;;;32.82;26.55;100313.89;106394;1258;64133;-92
2023/06/02 06:53:03;;;;;;;7.60;2.80;;;;;;;32.81;26.34;100314.48;106409;1254;61249;-90
2023/06/02 06:55:54;;;;;;;9.60;2.40;;;;;;;32.80;26.62;100310.45;106554;1254;61316;-90
2023/06/02 06:58:43;;;;;;;6.70;2.20;;;;;;;32.92;26.92;100308.51;107129;1257;64787;-92
2023/06/02 07:01:32;;;;;;;6.00;2.60;;;;;;;33.19;26.48;100306.73;106556;1254;61294;-94
2023/06/02 07:04:22;;;;;;;4.40;2.90;;;;;;;33.45;26.14;100302.48;106754;1254;62796;-93
2023/06/02 07:07:15;;;;;;;8.80;2.50;;;;;;;33.71;25.48;100300.29;106274;1258;61203;-94
2023/06/02 07:10:06;;;;;;;5.30;2.80;;;;;;;33.88;25.36;100301.39;106172;1254;61356;-92
2023/06/02 07:12:55;;;;;;;6.80;2.80;;;;;;;34.07;25.11;100294.59;106377;1254;66072;-92
2023/06/02 07:15:45;;;;;;;6.60;2.60;;;;;;;34.29;24.82;100297.77;106384;1254;61188;-91
2023/06/02 07:18:35;;;;;;;7.30;2.40;;;;;;;34.41;24.16;100296.88;106832;1254;64111;-94
2023/06/02 07:21:25;;;;;;;5.50;2.40;;;;;;;34.49;23.93;100295.17;106557;1254;60057;-91
2023/06/02 07:24:13;;;;;;;5.40;2.30;;;;;;;34.60;22.95;100296.60;106849;1254;59469;-92
2023/06/02 07:27:03;;;;;;;7.10;2.40;;;;;;;34.56;22.49;100293.29;106714;1254;66102;-95
2023/06/02 07:29:53;;;;;;;4.60;2.30;;;;;;;34.18;23.54;100293.27;106401;1254;61230;-92
2023/06/02 07:32:43;;;;;;;3.80;2.10;;;;;;;34.32;23.21;100290.15;106461;1258;62889;-92
2023/06/02 07:35:31;;;;;;;9.80;2.10;;;;;;;34.40;23.05;100287.59;106769;1262;61163;-91
2023/06/02 07:38:19;;;;;;;11.10;2.90;;;;;;;34.51;23.05;100287.43;106493;1254;61219;-92
2023/06/02 07:41:08;;;;;;;7.90;2.30;;;;;;;34.64;23.10;100285.15;106248;1254;73545;-93
2023/06/02 07:43:57;;;;;;;5.10;2.20;;;;;;;34.75;22.23;100283.85;107018;1253;61201;-90
2023/06/02 07:46:46;;;;;;;6.10;2.30;;;;;;;34.68;21.70;100285.02;106357;1257;62935;-91
2023/06/02 07:49:36;;;;;;;5.30;2.00;;;;;;;34.71;21.78;100279.85;106615;1257;61139;-91
2023/06/02 07:52:25;;;;;;;9.30;2.90;;;;;;;34.76;21.89;100281.24;106476;1257;61196;-92
2023/06/02 07:55:13;;;;;;;7.20;2.40;;;;;;;34.76;22.31;100280.36;106570;1254;64672;-91
2023/06/02 07:58:03;;;;;;;9.40;2.20;;;;;;;34.89;22.11;100284.59;106425;1254;61260;-93
2023/06/02 08:00:52;;;;;;;5.20;2.60;;;;;;;34.92;21.70;100280.75;106244;1254;65630;-91
2023/06/02 08:03:41;;;;;;;7.40;2.30;;;;;;;34.94;21.66;100278.66;106490;1260;61352;-93
2023/06/02 08:06:30;;;;;;;3.80;2.00;;;;;;;35.12;21.51;100280.50;106312;1254;61350;-93
2023/06/02 08:09:19;;;;;;;5.40;2.20;;;;;;;35.19;21.57;100282.30;106375;1255;66491;-91
2023/06/02 08:12:08;;;;;;;8.90;2.60;;;;;;;35.32;21.69;100277.11;106495;1258;61283;-91
2023/06/02 08:14:57;;;;;;;6.40;2.10;;;;;;;35.62;21.55;100275.77;108235;1254;63714;-91
2023/06/02 08:17:46;;;;;;;3.90;1.90;;;;;;;35.86;21.00;100279.36;106709;1256;61288;-93
2023/06/02 08:20:34;;;;;;;6.30;1.70;;;;;;;36.03;20.50;100273.42;106357;1254;61376;-91
2023/06/02 08:23:23;;;;;;;7.90;2.40;;;;;;;36.03;20.36;100275.80;106248;1254;66516;-91
2023/06/02 08:26:13;;;;;;;5.30;1.80;;;;;;;35.88;19.54;100279.85;106332;1260;61099;-93
2023/06/02 08:29:13;;;;;;;2.30;1.40;;;;;;;35.81;19.12;100277.89;106713;1254;64024;-93
2023/06/02 08:32:04;;;;;;;3.50;1.70;;;;;;;35.66;19.26;100276.45;106579;1255;61261;-94
2023/06/02 08:35:01;;;;;;;9.70;2.10;;;;;;;35.62;19.32;100267.02;106242;1253;61183;-89
2023/06/02 08:37:53;;;;;;;2.90;1.40;;;;;;;35.62;19.89;100268.48;106991;1257;65903;-92
2023/06/02 08:40:42;;;;;;;3.80;1.80;;;;;;;35.73;19.97;100264.70;106185;1253;61282;-90
2023/06/02 08:43:31;;;;;;;3.30;1.60;;;;;;;35.83;19.08;100267.04;107136;1254;64993;-91
2023/06/02 08:46:21;;;;;;;2.60;1.90;;;;;;;35.89;18.59;100269.57;106162;1262;61348;-91
2023/06/02 08:49:15;;;;;;;2.80;1.60;;;;;;;35.83;18.92;100267.59;106482;1254;61359;-93
2023/06/02 08:52:06;;;;;;;3.70;1.70;;;;;;;35.76;19.27;100263.52;106836;1254;66572;-92
2023/06/02 08:54:55;;;;;;;4.00;1.50;;;;;;;35.77;19.39;100259.27;106469;1257;62107;-91
2023/06/02 08:58:04;;;;;;;6.50;1.70;;;;;;;35.79;19.44;100258.47;107464;1253;62784;-91
2023/06/02 09:00:58;;;;;;;4.10;2.10;;;;;;;35.81;18.93;100258.34;107070;1253;61279;-93
2023/06/02 09:03:48;;;;;;;6.80;1.60;;;;;;;35.76;19.53;100258.32;106990;1254;60992;-94
2023/06/02 09:06:40;;;;;;;7.20;1.80;;;;;;;35.80;19.90;100253.64;107721;1254;64805;-91
2023/06/02 09:09:41;;;;;;;4.80;1.90;;;;;;;35.85;19.67;100253.07;106483;1254;61695;-91
2023/06/02 09:12:30;;;;;;;3.10;1.70;;;;;;;35.69;19.25;100255.30;106491;1254;64044;-91
2023/06/02 09:15:19;;;;;;;3.90;1.60;;;;;;;35.50;19.43;100257.70;107405;1254;61393;-93
2023/06/02 09:18:23;;;;;;;;;;;;;;;;;;;;;
2023/06/02 09:21:28;;;;;;;3.70;2.00;;;;;;;35.48;19.66;100240.96;106497;1254;64784;-93
2023/06/02 09:24:44;;;;;;;3.10;1.60;;;;;;;35.65;19.88;100239.85;106523;1254;61362;-90
2023/06/02 09:27:33;;;;;;;4.50;1.50;;;;;;;35.98;20.07;100237.77;106403;1255;63141;-90
2023/06/02 09:30:22;;;;;;;6.80;2.00;;;;;;;36.18;19.54;100233.77;106634;1254;61391;-93
2023/06/02 09:33:14;;;;;;;4.30;1.70;;;;;;;35.95;19.02;100228.98;107259;1256;61157;-92
2023/06/02 09:36:33;;;;;;;;;;;;;;;;;;;;;
2023/06/02 09:40:17;;;;;;;;;;;;;;;;;;;;;
2023/06/02 09:43:33;;;;;;;5.90;2.30;;;;;;;36.11;18.97;100223.90;106929;1254;63158;-92
2023/06/02 09:46:41;;;;;;;3.30;1.60;;;;;;;36.17;18.96;100220.45;106311;1256;61216;-92
2023/06/02 09:49:55;;;;;;;6.00;1.70;;;;;;;36.21;19.01;100212.90;106409;1254;61289;-91
2023/06/02 09:53:13;;;;;;;5.00;2.00;;;;;;;36.24;19.42;100214.00;106292;1258;65920;-94
2023/06/02 09:56:12;;;;;;;4.20;2.10;;;;;;;36.26;19.14;100208.73;106387;1254;61134;-93
2023/06/02 09:59:13;;;;;;;5.80;2.30;;;;;;;36.20;19.46;100210.02;106356;1254;62815;-91
2023/06/02 10:02:30;;;;;;;5.30;2.10;;;;;;;36.36;19.38;100209.20;106574;1258;61256;-92
2023/06/02 10:05:51;;;;;;;5.00;1.80;;;;;;;36.39;18.70;100207.95;106514;1254;61839;-91
2023/06/02 10:09:41;;;;;;;3.10;1.70;;;;;;;36.33;18.89;100208.26;106427;1254;66084;-93
